Time;durP1;ratioP1;P1;durP2;ratioP2;P2;SDS_P1;SDS_P2;PMS_P1;PMS_P2;Temp;Humidity;BMP_temperature;BMP_pressure;BME280_temperature;BME280_humidity;BME280_pressure;Samples;Min_cycle;Max_cycle;Signal;HPM_P1;HPM_P2
2021/12/11 00:02:17;;;;;;;5.72;2.20;;;;;;;2.14;84.40;94907.63;5108588;28;20051;-75
2021/12/11 00:04:45;;;;;;;3.22;2.03;;;;;;;2.18;84.36;94908.63;5109257;28;20047;-75
2021/12/11 00:07:15;;;;;;;4.72;2.47;;;;;;;2.20;83.69;94911.84;5108337;28;20070;-75
2021/12/11 00:09:48;;;;;;;3.45;2.10;;;;;;;2.16;83.59;94917.00;5108908;28;20062;-75
2021/12/11 00:12:19;;;;;;;8.93;2.50;;;;;;;2.19;83.59;94926.34;5108323;28;20063;-74
2021/12/11 00:15:04;;;;;;;4.72;1.92;;;;;;;2.19;83.30;94921.75;5088063;28;20915;-75
2021/12/11 00:17:33;;;;;;;3.05;1.98;;;;;;;2.20;83.41;94926.06;5088122;28;20040;-75
2021/12/11 00:20:00;;;;;;;4.63;2.10;;;;;;;2.22;82.94;94929.22;5087868;28;20055;-74
2021/12/11 00:22:29;;;;;;;4.22;1.95;;;;;;;2.22;83.13;94931.91;5079455;28;20047;-74
2021/12/11 00:25:05;;;;;;;4.80;2.00;;;;;;;2.26;83.22;94927.53;5104086;28;20049;-74
2021/12/11 00:27:33;;;;;;;5.57;2.10;;;;;;;2.28;83.12;94941.44;5100729;28;20101;-74
2021/12/11 00:30:00;;;;;;;4.28;1.60;;;;;;;2.31;82.67;94950.81;5108747;28;20071;-74
2021/12/11 00:32:30;;;;;;;3.83;2.00;;;;;;;2.32;82.50;94950.50;5108632;28;20126;-74
2021/12/11 00:35:04;;;;;;;4.82;1.88;;;;;;;2.31;82.15;94950.81;5108258;28;20054;-74
2021/12/11 00:37:30;;;;;;;;;;;;;;;2.25;82.27;94958.19;5108133;28;20062;-75
2021/12/11 00:40:01;;;;;;;4.22;1.77;;;;;;;2.23;82.27;94959.56;5108483;28;19927;-74
2021/12/11 00:42:33;;;;;;;4.70;2.33;;;;;;;2.25;82.46;94968.13;5108594;27;20044;-74
2021/12/11 00:45:01;;;;;;;5.20;2.05;;;;;;;2.24;82.15;94966.53;5107929;28;20050;-74
2021/12/11 00:47:32;;;;;;;4.70;2.00;;;;;;;2.23;82.10;94968.41;5107628;28;20051;-75
2021/12/11 00:50:00;;;;;;;4.20;1.58;;;;;;;2.22;82.13;94980.25;5108675;28;20043;-75
2021/12/11 00:52:30;;;;;;;5.40;1.63;;;;;;;2.18;81.97;94979.25;5107702;28;20051;-74
2021/12/11 00:54:57;;;;;;;2.25;1.50;;;;;;;2.20;82.17;94982.44;5108645;28;20562;-74
2021/12/11 00:57:25;;;;;;;4.85;1.48;;;;;;;2.21;82.12;94989.41;5107511;28;20493;-74
2021/12/11 01:00:00;;;;;;;4.53;1.40;;;;;;;2.21;81.75;94989.41;5108279;28;20047;-74
2021/12/11 01:02:27;;;;;;;9.50;1.63;;;;;;;2.22;81.81;94991.00;5089255;28;20043;-75
2021/12/11 01:04:54;;;;;;;3.10;1.60;;;;;;;2.19;81.73;95002.31;5108424;28;20494;-74
2021/12/11 01:07:22;;;;;;;4.25;1.70;;;;;;;2.23;81.61;95010.59;5107438;28;20055;-74
2021/12/11 01:09:53;;;;;;;3.05;1.52;;;;;;;2.22;81.66;95017.84;5108516;28;20130;-74
2021/12/11 01:12:24;;;;;;;5.50;1.67;;;;;;;2.25;81.86;95019.97;5107756;28;20047;-75
2021/12/11 01:14:59;;;;;;;3.47;1.30;;;;;;;2.27;81.29;95025.03;5128718;27;20066;-74
2021/12/11 01:17:37;;;;;;;5.63;1.80;;;;;;;2.27;81.44;95025.03;5127768;27;20089;-75
2021/12/11 01:20:09;;;;;;;4.15;1.33;;;;;;;2.25;81.36;95030.69;5128287;27;20055;-74
2021/12/11 01:22:37;;;;;;;4.35;1.35;;;;;;;2.24;81.41;95041.72;5128390;27;20047;-74
2021/12/11 01:25:09;;;;;;;2.97;1.30;;;;;;;2.23;81.46;95042.81;5128188;28;20046;-74
2021/12/11 01:27:37;;;;;;;2.70;1.50;;;;;;;2.25;81.12;95043.34;5128075;28;20043;-74
2021/12/11 01:30:09;;;;;;;3.85;1.30;;;;;;;2.26;81.03;95040.34;5127908;28;20043;-74
2021/12/11 01:32:37;;;;;;;1.70;1.10;;;;;;;2.26;80.98;95048.41;5128561;28;20047;-74
2021/12/11 01:35:08;;;;;;;3.45;1.20;;;;;;;2.26;81.11;95051.09;5128241;28;20288;-73
2021/12/11 01:37:36;;;;;;;1.92;1.20;;;;;;;2.28;80.90;95059.63;5128191;28;20046;-74
2021/12/11 01:40:07;;;;;;;3.13;1.50;;;;;;;2.28;81.07;95056.16;5127918;28;20524;-73
2021/12/11 01:42:35;;;;;;;2.10;1.30;;;;;;;2.36;80.70;95060.84;5127313;28;20395;-74
2021/12/11 01:45:07;;;;;;;2.53;1.45;;;;;;;2.40;80.61;95063.72;5127830;28;20047;-73
2021/12/11 01:47:37;;;;;;;5.60;1.60;;;;;;;2.38;80.39;95071.28;5128065;28;20035;-74
2021/12/11 01:50:10;;;;;;;2.00;1.27;;;;;;;2.37;80.32;95083.13;5127753;28;20058;-74
2021/12/11 01:52:41;;;;;;;2.65;1.55;;;;;;;2.37;80.45;95077.78;5128257;28;20494;-74
2021/12/11 01:55:10;;;;;;;4.70;1.40;;;;;;;2.35;80.47;95078.88;5128016;27;20070;-74
2021/12/11 01:57:37;;;;;;;4.72;1.40;;;;;;;2.32;80.05;95081.34;5131326;27;20053;-76
2021/12/11 02:00:12;;;;;;;3.38;1.20;;;;;;;2.33;80.48;95097.16;5132087;27;20047;-74
2021/12/11 02:02:45;;;;;;;3.95;1.33;;;;;;;2.33;80.20;95083.72;5132075;27;20043;-75
2021/12/11 02:05:14;;;;;;;3.53;1.17;;;;;;;2.29;80.23;95090.78;5131869;27;20043;-74
2021/12/11 02:07:44;;;;;;;2.17;1.23;;;;;;;2.27;80.26;95084.91;5131507;27;20517;-74
2021/12/11 02:10:17;;;;;;;2.20;1.27;;;;;;;2.24;80.37;95090.88;5131543;27;20515;-75
2021/12/11 02:12:44;;;;;;;3.38;1.50;;;;;;;2.25;80.48;95089.00;5130661;27;20052;-75
2021/12/11 02:15:17;;;;;;;3.67;1.05;;;;;;;2.25;80.41;95094.38;5131353;27;20047;-74
2021/12/11 02:17:50;;;;;;;3.42;1.20;;;;;;;2.24;80.43;95098.91;5129365;27;20047;-74
2021/12/11 02:20:23;;;;;;;2.53;1.45;;;;;;;2.26;80.40;95099.44;5110534;28;20055;-74
2021/12/11 02:22:52;;;;;;;3.30;1.35;;;;;;;2.25;80.24;95100.53;5111135;28;20047;-74
2021/12/11 02:25:22;;;;;;;3.85;1.05;;;;;;;2.25;80.34;95107.81;5110530;28;20717;-74
2021/12/11 02:27:53;;;;;;;2.80;1.30;;;;;;;2.27;80.32;95111.78;5110937;28;20047;-74
2021/12/11 02:30:26;;;;;;;2.40;1.20;;;;;;;2.27;80.03;95117.16;5110564;28;20040;-74
2021/12/11 02:33:03;;;;;;;3.40;1.40;;;;;;;2.26;80.09;95123.63;5111125;28;20052;-74
2021/12/11 02:35:34;;;;;;;2.55;1.17;;;;;;;2.25;80.20;95130.09;5110570;28;20051;-75
2021/12/11 02:38:10;;;;;;;2.58;1.27;;;;;;;2.28;80.13;95134.84;5110570;28;20054;-74
2021/12/11 02:40:41;;;;;;;3.22;1.20;;;;;;;2.23;80.45;95131.44;5110592;28;20162;-74
2021/12/11 02:43:14;;;;;;;2.72;1.10;;;;;;;2.23;80.19;95137.63;5129464;27;20067;-74
2021/12/11 02:45:48;;;;;;;1.90;1.20;;;;;;;2.25;80.26;95145.41;5131082;27;20059;-74
2021/12/11 02:48:18;;;;;;;2.20;1.20;;;;;;;2.26;80.16;95142.41;5130658;27;20058;-74
2021/12/11 02:50:50;;;;;;;3.00;1.10;;;;;;;2.25;80.11;95153.47;5131387;27;20051;-74
2021/12/11 02:53:24;;;;;;;4.85;1.48;;;;;;;2.25;79.99;95146.19;5130820;27;20050;-74
2021/12/11 02:55:56;;;;;;;2.50;1.25;;;;;;;2.26;80.29;95163.91;5131074;27;20043;-74
2021/12/11 02:58:27;;;;;;;3.25;1.10;;;;;;;2.25;80.21;95156.16;5130063;27;20694;-74
2021/12/11 03:00:57;;;;;;;1.45;1.05;;;;;;;2.26;80.14;95163.13;5131253;27;20070;-75
2021/12/11 03:03:29;;;;;;;2.20;1.20;;;;;;;2.26;80.05;95161.22;5130618;27;20060;-74
2021/12/11 03:06:02;;;;;;;2.45;1.30;;;;;;;2.29;80.01;95163.28;5131203;27;20043;-74
2021/12/11 03:08:31;;;;;;;2.28;1.52;;;;;;;2.34;80.02;95173.97;5129882;27;20061;-75
2021/12/11 03:10:59;;;;;;;2.17;1.40;;;;;;;2.33;79.13;95179.63;5131101;27;20047;-74
2021/12/11 03:13:30;;;;;;;3.50;1.48;;;;;;;2.34;79.67;95165.09;5120392;27;20537;-75
2021/12/11 03:15:57;;;;;;;2.58;1.30;;;;;;;2.30;79.67;95181.03;5110000;28;20058;-74
2021/12/11 03:18:24;;;;;;;1.80;1.30;;;;;;;2.29;79.79;95179.41;5109567;28;20059;-75
2021/12/11 03:20:53;;;;;;;2.60;1.30;;;;;;;2.28;79.83;95180.50;5110106;28;20047;-75
2021/12/11 03:23:20;;;;;;;3.10;1.48;;;;;;;2.28;80.00;95188.56;5109345;28;20422;-74
2021/12/11 03:25:48;;;;;;;2.03;1.30;;;;;;;2.28;79.86;95183.19;5109960;28;20055;-74
2021/12/11 03:28:17;;;;;;;3.85;1.38;;;;;;;2.26;80.00;95195.34;5109132;28;20539;-74
2021/12/11 03:30:50;;;;;;;1.80;1.40;;;;;;;2.25;79.83;95199.91;5109878;28;20065;-74
2021/12/11 03:33:18;;;;;;;4.32;1.30;;;;;;;2.24;79.99;95203.66;5109543;28;20094;-75
2021/12/11 03:35:46;;;;;;;2.15;1.30;;;;;;;2.21;79.85;95206.97;5109792;28;20048;-74
2021/12/11 03:38:13;;;;;;;2.47;1.60;;;;;;;2.24;80.15;95217.09;5109242;28;20046;-74
2021/12/11 03:40:41;;;;;;;2.53;1.50;;;;;;;2.23;80.09;95218.19;5109095;28;20066;-74
2021/12/11 03:43:12;;;;;;;2.15;1.50;;;;;;;2.22;80.07;95227.34;5106778;27;20062;-74
2021/12/11 03:45:42;;;;;;;1.70;1.23;;;;;;;2.25;79.80;95224.09;5109883;28;20421;-74
2021/12/11 03:48:12;;;;;;;3.75;1.75;;;;;;;2.27;79.73;95229.97;5108788;28;20055;-75
2021/12/11 03:50:40;;;;;;;3.88;1.70;;;;;;;2.30;79.59;95231.28;5109417;28;20055;-75
2021/12/11 03:53:08;;;;;;;4.13;1.35;;;;;;;2.32;79.73;95231.78;5108601;28;20052;-74
2021/12/11 03:55:39;;;;;;;3.65;1.50;;;;;;;2.33;79.55;95230.69;5109631;28;20044;-74
2021/12/11 03:58:07;;;;;;;1.95;1.50;;;;;;;2.33;79.17;95234.16;5108986;28;20047;-76
2021/12/11 04:00:40;;;;;;;3.47;1.38;;;;;;;2.31;79.53;95236.34;5109552;28;20104;-75
2021/12/11 04:03:09;;;;;;;3.22;1.52;;;;;;;2.28;79.62;95253.03;5108986;28;20078;-74
2021/12/11 04:05:42;;;;;;;3.45;1.67;;;;;;;2.26;80.23;95244.50;5109139;28;20046;-75
2021/12/11 04:08:11;;;;;;;2.42;1.60;;;;;;;2.25;80.54;95253.63;5108280;28;20121;-75
2021/12/11 04:10:39;;;;;;;3.92;1.95;;;;;;;2.17;81.47;95258.88;5109419;28;20557;-75
2021/12/11 04:13:08;;;;;;;5.40;2.00;;;;;;;2.11;82.21;95255.47;5108313;28;20120;-75
2021/12/11 04:15:38;;;;;;;3.25;1.80;;;;;;;1.99;82.51;95260.47;5108966;28;20110;-75
2021/12/11 04:18:05;;;;;;;4.53;2.22;;;;;;;1.95;82.89;95260.25;5108056;28;20059;-74
2021/12/11 04:20:36;;;;;;;2.92;2.20;;;;;;;1.93;83.00;95266.97;5108492;28;20140;-74
2021/12/11 04:23:03;;;;;;;7.65;2.50;;;;;;;1.90;83.13;95264.88;5108010;28;20056;-74
2021/12/11 04:25:30;;;;;;;6.97;2.40;;;;;;;1.90;83.07;95272.94;5108844;28;20044;-74
2021/12/11 04:27:58;;;;;;;4.47;2.38;;;;;;;1.91;83.51;95275.31;5108412;28;20055;-74
2021/12/11 04:30:26;;;;;;;4.65;2.30;;;;;;;1.92;83.14;95268.06;5108263;28;20047;-74
2021/12/11 04:32:56;;;;;;;5.90;2.53;;;;;;;1.91;83.43;95277.22;5108311;28;20518;-74
2021/12/11 04:35:27;;;;;;;4.93;2.58;;;;;;;1.91;83.33;95280.69;5108364;28;20054;-74
2021/12/11 04:37:54;;;;;;;3.95;2.50;;;;;;;1.91;83.16;95280.69;5108435;28;20089;-74
2021/12/11 04:40:24;;;;;;;6.32;2.50;;;;;;;1.94;83.32;95290.88;5108125;28;20055;-74
2021/12/11 04:42:56;;;;;;;3.35;2.30;;;;;;;1.94;83.40;95292.75;5108402;28;20062;-74
2021/12/11 04:45:29;;;;;;;5.55;2.95;;;;;;;1.92;83.43;95297.59;5108322;28;20058;-74
2021/12/11 04:48:02;;;;;;;7.03;3.10;;;;;;;1.97;83.33;95300.22;5108078;28;20525;-74
2021/12/11 04:50:40;;;;;;;4.88;2.58;;;;;;;1.97;83.07;95310.97;5108222;28;20043;-74
2021/12/11 04:53:21;;;;;;;4.05;2.45;;;;;;;1.95;83.30;95319.31;5107823;28;20097;-74
2021/12/11 04:56:00;;;;;;;4.93;2.30;;;;;;;1.96;83.04;95310.16;5108267;28;20488;-74
2021/12/11 05:01:32;;;;;;;3.63;2.20;;;;;;;1.99;82.98;95319.53;5101945;28;20122;-75
2021/12/11 05:04:35;;;;;;;5.38;1.75;;;;;;;1.98;82.80;95323.28;5108487;28;20054;-75
2021/12/11 05:07:07;;;;;;;4.63;2.28;;;;;;;1.98;83.02;95342.09;5107577;28;20043;-74
2021/12/11 05:09:40;;;;;;;5.75;2.40;;;;;;;2.04;82.81;95340.97;5108303;28;20055;-74
2021/12/11 05:12:16;;;;;;;2.65;1.67;;;;;;;2.07;82.88;95348.41;5107631;28;20056;-74
2021/12/11 05:14:45;;;;;;;3.42;2.20;;;;;;;2.07;82.70;95345.72;5108210;28;20043;-74
2021/12/11 05:17:12;;;;;;;4.90;2.63;;;;;;;2.05;82.86;95367.50;5106930;28;20050;-75
2021/12/11 05:19:41;;;;;;;7.45;2.45;;;;;;;2.06;82.72;95353.00;5108043;28;20395;-75
2021/12/11 05:22:09;;;;;;;3.63;2.17;;;;;;;2.09;82.88;95357.81;5107792;28;20047;-75
2021/12/11 05:24:38;;;;;;;5.07;2.20;;;;;;;2.09;83.05;95362.38;5107622;28;20418;-74
2021/12/11 05:27:06;;;;;;;5.25;2.55;;;;;;;2.04;83.32;95359.75;5107679;28;20058;-74
2021/12/11 05:29:33;;;;;;;5.55;2.47;;;;;;;1.98;83.88;95360.88;5107695;28;20047;-74
2021/12/11 05:32:05;;;;;;;2.92;2.17;;;;;;;1.89;84.63;95365.31;5114571;28;20051;-74
2021/12/11 05:34:32;;;;;;;4.05;2.40;;;;;;;1.88;85.03;95366.38;5114404;28;20043;-74
2021/12/11 05:37:00;;;;;;;5.45;2.70;;;;;;;1.89;84.76;95376.03;5114455;28;20062;-75
2021/12/11 05:39:27;;;;;;;5.18;2.80;;;;;;;1.89;84.98;95378.72;5114357;28;20054;-74
2021/12/11 05:41:54;;;;;;;4.53;2.50;;;;;;;1.83;85.11;95373.41;5114432;28;20055;-74
2021/12/11 05:44:23;;;;;;;4.78;2.33;;;;;;;1.85;85.30;95372.31;5114443;28;20044;-74
2021/12/11 05:46:51;;;;;;;4.53;2.40;;;;;;;1.79;85.41;95375.06;5114496;28;20055;-73
2021/12/11 05:49:19;;;;;;;5.13;2.58;;;;;;;1.73;85.67;95383.47;5114274;28;20073;-74
2021/12/11 05:51:48;;;;;;;5.18;2.63;;;;;;;1.73;85.73;95378.91;5114494;28;20051;-74
2021/12/11 05:54:21;;;;;;;6.43;2.53;;;;;;;1.73;85.75;95386.97;5114183;28;20055;-74
2021/12/11 05:56:48;;;;;;;3.00;2.10;;;;;;;1.70;86.01;95392.88;5114490;28;20632;-74
2021/12/11 05:59:18;;;;;;;5.57;2.50;;;;;;;1.69;86.06;95393.19;5113791;28;20043;-74
2021/12/11 06:01:47;;;;;;;4.13;2.47;;;;;;;1.72;86.18;95406.84;5114507;28;20050;-74
2021/12/11 06:04:17;;;;;;;5.13;2.45;;;;;;;1.75;85.97;95411.63;5113620;28;20059;-74
2021/12/11 06:06:45;;;;;;;3.15;1.98;;;;;;;1.79;85.64;95406.47;5114299;28;20042;-74
2021/12/11 06:09:14;;;;;;;4.05;2.80;;;;;;;1.75;85.64;95413.50;5113855;28;20051;-74
2021/12/11 06:11:44;;;;;;;3.78;2.42;;;;;;;1.75;85.86;95422.34;5114326;28;20430;-74
2021/12/11 06:14:11;;;;;;;4.00;2.58;;;;;;;1.73;85.76;95435.28;5113641;28;20055;-74
2021/12/11 06:16:38;;;;;;;5.20;2.25;;;;;;;1.76;85.69;95423.94;5114240;28;20047;-74
2021/12/11 06:19:06;;;;;;;4.20;2.20;;;;;;;1.82;85.54;95433.53;5113364;28;20048;-74
2021/12/11 06:21:35;;;;;;;4.97;2.30;;;;;;;1.81;85.54;95437.31;5114182;27;20104;-75
2021/12/11 06:24:02;;;;;;;4.97;2.30;;;;;;;1.87;85.27;95439.94;5113855;28;20051;-72
2021/12/11 06:26:29;;;;;;;5.30;2.30;;;;;;;1.87;85.13;95454.16;5114025;28;20055;-74
2021/12/11 06:28:57;;;;;;;5.07;2.28;;;;;;;1.83;85.10;95450.47;5114101;28;20048;-74
2021/12/11 06:31:24;;;;;;;3.70;2.03;;;;;;;1.86;85.20;95455.25;5113379;28;20051;-74
2021/12/11 06:33:53;;;;;;;4.28;1.92;;;;;;;1.90;85.25;95460.88;5113683;28;20126;-74
2021/12/11 06:36:22;;;;;;;4.28;2.25;;;;;;;1.92;84.68;95469.41;5113460;28;20522;-73
2021/12/11 06:38:53;;;;;;;4.90;2.10;;;;;;;1.91;84.67;95470.50;5113812;28;20035;-74
2021/12/11 06:41:23;;;;;;;2.95;1.92;;;;;;;1.91;84.76;95482.03;5112946;28;20055;-73
2021/12/11 06:43:49;;;;;;;5.70;2.28;;;;;;;1.95;84.70;95482.28;5110477;28;20494;-74
2021/12/11 06:46:18;;;;;;;4.70;1.90;;;;;;;1.93;84.69;95489.81;5110404;28;20071;-73
2021/12/11 06:48:45;;;;;;;3.35;2.08;;;;;;;1.95;84.50;95490.34;5110324;28;20048;-74
2021/12/11 06:51:12;;;;;;;3.55;2.35;;;;;;;1.95;84.45;95495.72;5110229;28;20062;-73
2021/12/11 06:53:41;;;;;;;3.15;1.70;;;;;;;1.96;84.35;95502.69;5111105;28;20050;-74
2021/12/11 06:56:10;;;;;;;2.38;1.83;;;;;;;1.98;84.36;95508.56;5110224;28;20055;-74
2021/12/11 06:58:37;;;;;;;4.07;1.80;;;;;;;1.99;84.09;95510.19;5110501;28;20047;-73
2021/12/11 07:01:06;;;;;;;3.67;2.08;;;;;;;2.02;83.97;95512.28;5110224;28;20043;-73
2021/12/11 07:03:35;;;;;;;2.63;1.60;;;;;;;2.02;84.05;95531.06;5110714;28;20098;-73
2021/12/11 07:06:02;;;;;;;2.95;1.55;;;;;;;1.99;83.86;95528.97;5110041;28;20044;-73
2021/12/11 07:08:29;;;;;;;3.95;1.98;;;;;;;2.04;83.96;95537.78;5110489;28;20058;-74
2021/12/11 07:10:57;;;;;;;2.60;1.60;;;;;;;2.09;83.72;95545.00;5110302;28;20126;-74
2021/12/11 07:13:23;;;;;;;3.70;1.60;;;;;;;2.15;83.78;95548.44;5109946;28;20051;-74
2021/12/11 07:15:50;;;;;;;4.25;1.90;;;;;;;2.18;84.18;95554.00;5110422;28;20043;-74
2021/12/11 07:18:16;;;;;;;3.13;1.77;;;;;;;2.12;84.22;95565.88;5109985;28;20048;-73
2021/12/11 07:20:44;;;;;;;6.05;2.20;;;;;;;2.08;84.49;95572.91;5110562;28;20039;-73
2021/12/11 07:23:11;;;;;;;6.05;2.45;;;;;;;1.99;84.83;95578.09;5109481;28;20051;-75
2021/12/11 07:25:42;;;;;;;3.33;2.50;;;;;;;1.91;85.62;95586.75;5110066;28;20047;-76
2021/12/11 07:28:11;;;;;;;4.32;2.40;;;;;;;1.90;86.06;95595.09;5109439;28;20043;-73
2021/12/11 07:30:40;;;;;;;5.45;2.47;;;;;;;1.90;85.79;95598.59;5109819;28;20062;-71
2021/12/11 07:33:07;;;;;;;5.43;2.28;;;;;;;1.84;86.30;95607.75;5109574;28;20055;-72
2021/12/11 07:35:37;;;;;;;5.28;2.60;;;;;;;1.79;86.70;95608.59;5110321;28;20043;-73
2021/12/11 07:38:05;;;;;;;4.93;2.50;;;;;;;1.81;87.04;95617.16;5109151;28;20047;-74
2021/12/11 07:40:36;;;;;;;3.72;2.42;;;;;;;1.75;86.87;95620.16;5109812;28;20039;-73
2021/12/11 07:43:03;;;;;;;4.63;2.55;;;;;;;1.67;87.49;95629.63;5109192;28;20059;-73
2021/12/11 07:45:30;;;;;;;7.10;2.80;;;;;;;1.61;87.73;95625.34;5109781;28;20047;-73
2021/12/11 07:47:56;;;;;;;6.95;2.75;;;;;;;1.62;88.40;95637.72;5109389;28;20046;-73
2021/12/11 07:50:24;;;;;;;5.15;3.20;;;;;;;1.56;88.67;95638.81;5109285;28;20592;-73
2021/12/11 07:52:50;;;;;;;5.60;3.40;;;;;;;1.51;89.16;95641.53;5109590;28;20056;-72
2021/12/11 07:55:19;;;;;;;6.35;3.50;;;;;;;1.47;89.72;95645.88;5107619;28;20051;-73
2021/12/11 07:57:46;;;;;;;5.47;3.00;;;;;;;1.42;90.34;95654.75;5109142;28;20051;-72
2021/12/11 08:00:16;;;;;;;7.25;3.13;;;;;;;1.40;90.44;95656.06;5108899;28;20045;-72
2021/12/11 08:02:44;;;;;;;6.63;3.50;;;;;;;1.41;90.64;95657.69;5109431;28;20201;-72
2021/12/11 08:05:11;;;;;;;6.07;3.40;;;;;;;1.36;90.63;95661.22;5108922;28;20051;-72
2021/12/11 08:07:38;;;;;;;6.20;3.42;;;;;;;1.36;90.93;95665.75;5109093;28;20054;-72
2021/12/11 08:10:06;;;;;;;5.35;2.97;;;;;;;1.32;91.05;95670.09;5109095;28;20043;-72
2021/12/11 08:12:34;;;;;;;7.63;3.40;;;;;;;1.31;91.20;95669.28;5108674;28;20051;-73
2021/12/11 08:15:01;;;;;;;7.10;3.60;;;;;;;1.36;91.57;95682.66;5109117;28;20047;-73
2021/12/11 08:17:27;;;;;;;4.60;2.83;;;;;;;1.34;91.19;95684.00;5108325;28;20418;-73
2021/12/11 08:19:54;;;;;;;5.95;3.28;;;;;;;1.37;91.32;95688.84;5109321;28;20058;-72
2021/12/11 08:22:21;;;;;;;6.68;3.33;;;;;;;1.41;91.27;95689.88;5108730;28;20054;-72
2021/12/11 08:24:47;;;;;;;7.60;3.58;;;;;;;1.50;91.28;95698.94;5108693;28;20697;-73
2021/12/11 08:27:17;;;;;;;8.68;4.25;;;;;;;1.52;90.90;95702.19;5108527;28;20048;-73
2021/12/11 08:29:48;;;;;;;8.55;4.40;;;;;;;1.52;90.49;95704.88;5108756;28;20043;-73
2021/12/11 08:32:16;;;;;;;6.85;3.90;;;;;;;1.53;90.38;95711.81;5108456;28;20141;-73
2021/12/11 08:34:42;;;;;;;9.27;4.68;;;;;;;1.56;90.22;95722.00;5108862;28;20044;-73
2021/12/11 08:37:12;;;;;;;7.63;4.53;;;;;;;1.61;90.43;95723.84;5108460;28;20051;-73
2021/12/11 08:39:40;;;;;;;8.02;4.70;;;;;;;1.61;89.63;95724.66;5108839;28;20051;-71
2021/12/11 08:42:11;;;;;;;8.40;4.05;;;;;;;1.57;89.46;95729.00;5107799;28;20047;-73
2021/12/11 08:44:39;;;;;;;6.07;3.65;;;;;;;1.51;89.65;95738.13;5108500;28;20108;-73
2021/12/11 08:47:10;;;;;;;8.43;4.45;;;;;;;1.45;89.76;95756.13;5107611;28;20055;-73
2021/12/11 08:49:39;;;;;;;5.78;4.00;;;;;;;1.41;89.90;95749.72;5108559;28;20501;-73
2021/12/11 08:52:08;;;;;;;6.68;4.22;;;;;;;1.40;90.05;95769.53;5108145;28;20054;-72
2021/12/11 08:54:36;;;;;;;7.25;4.10;;;;;;;1.41;90.49;95775.72;5108562;28;20513;-73
2021/12/11 08:57:07;;;;;;;6.65;3.88;;;;;;;1.42;90.49;95777.34;5107819;28;20056;-72
2021/12/11 08:59:36;;;;;;;7.13;3.95;;;;;;;1.41;90.43;95778.41;5108565;28;20047;-73
2021/12/11 09:02:08;;;;;;;5.68;3.92;;;;;;;1.39;90.43;95786.72;5107766;28;20490;-72
2021/12/11 09:04:38;;;;;;;6.60;4.13;;;;;;;1.39;90.29;95788.59;5108196;28;20051;-73
2021/12/11 09:07:09;;;;;;;6.57;4.10;;;;;;;1.40;90.46;95791.00;5107473;28;20517;-72
2021/12/11 09:09:40;;;;;;;6.18;4.30;;;;;;;1.40;90.53;95795.56;5108315;28;20047;-73
2021/12/11 09:12:10;;;;;;;8.50;4.80;;;;;;;1.46;90.93;95805.22;5107619;28;20054;-74
2021/12/11 09:14:41;;;;;;;6.35;3.85;;;;;;;1.48;90.56;95805.75;5108221;28;20620;-73
2021/12/11 09:17:11;;;;;;;7.95;4.60;;;;;;;1.49;90.23;95813.53;5107238;28;20058;-73
2021/12/11 09:19:42;;;;;;;7.15;4.15;;;;;;;1.48;90.08;95819.16;5107726;28;20039;-73
2021/12/11 09:22:11;;;;;;;7.75;4.60;;;;;;;1.48;90.02;95819.97;5107876;28;20054;-72
2021/12/11 09:24:43;;;;;;;9.07;5.35;;;;;;;1.50;90.08;95827.75;5108245;28;20055;-73
2021/12/11 09:27:16;;;;;;;7.97;5.30;;;;;;;1.47;89.72;95839.84;5107660;28;20418;-72
2021/12/11 09:29:48;;;;;;;10.52;5.43;;;;;;;1.46;89.62;95838.25;5108108;28;20063;-72
2021/12/11 09:32:21;;;;;;;9.25;5.70;;;;;;;1.43;89.76;95851.38;5107331;28;20059;-73
2021/12/11 09:34:54;;;;;;;11.70;5.85;;;;;;;1.42;89.71;95857.81;5108090;28;20399;-73
2021/12/11 09:37:21;;;;;;;10.13;5.97;;;;;;;1.44;89.81;95861.84;5107203;28;20054;-74
2021/12/11 09:39:50;;;;;;;8.52;5.78;;;;;;;1.44;89.72;95855.66;5108184;28;20051;-73
2021/12/11 09:42:16;;;;;;;10.32;5.75;;;;;;;1.45;90.00;95851.91;5106891;28;20044;-74
2021/12/11 09:44:49;;;;;;;9.13;5.78;;;;;;;1.51;89.79;95869.59;5108043;28;20047;-74
2021/12/11 09:47:20;;;;;;;10.07;6.00;;;;;;;1.53;89.63;95864.78;5107164;28;20055;-74
2021/12/11 09:49:56;;;;;;;9.23;6.03;;;;;;;1.55;89.62;95868.78;5107863;28;20726;-74
2021/12/11 09:52:25;;;;;;;9.80;5.78;;;;;;;1.54;89.13;95864.50;5088972;28;20624;-74
2021/12/11 09:54:55;;;;;;;9.68;5.72;;;;;;;1.54;89.32;95879.78;5108053;28;20062;-74
2021/12/11 09:57:25;;;;;;;11.52;8.00;;;;;;;1.57;89.26;95890.00;5106951;28;20058;-74
2021/12/11 09:59:56;;;;;;;10.73;6.20;;;;;;;1.55;89.36;95887.56;5107895;28;20050;-74
2021/12/11 10:02:26;;;;;;;9.52;5.70;;;;;;;1.54;88.64;95898.56;5107397;28;20051;-74
2021/12/11 10:04:59;;;;;;;10.40;5.47;;;;;;;1.50;88.92;95892.13;5107804;28;20044;-73
2021/12/11 10:07:32;;;;;;;8.88;5.78;;;;;;;1.48;89.00;95905.03;5106900;28;20043;-74
2021/12/11 10:10:15;;;;;;;8.23;5.78;;;;;;;1.47;89.30;95906.13;5107207;28;20043;-74
2021/12/11 10:12:47;;;;;;;8.45;5.72;;;;;;;1.48;89.34;95907.72;5107317;28;20039;-74
2021/12/11 10:15:19;;;;;;;10.48;6.50;;;;;;;1.42;89.16;95906.91;5106830;28;20047;-73
2021/12/11 10:17:50;;;;;;;8.55;5.75;;;;;;;1.39;89.58;95917.38;5109185;28;20673;-74
2021/12/11 10:20:22;;;;;;;9.32;6.00;;;;;;;1.48;89.99;95921.94;5111234;28;20696;-74
2021/12/11 10:22:50;;;;;;;8.75;5.95;;;;;;;1.44;89.44;95925.44;5111601;28;20071;-74
2021/12/11 10:25:21;;;;;;;9.73;6.50;;;;;;;1.47;89.62;95935.63;5110570;28;20051;-75
2021/12/11 10:27:49;;;;;;;10.68;6.65;;;;;;;1.47;89.78;95935.63;5111385;28;20070;-74
2021/12/11 10:30:21;;;;;;;13.73;6.53;;;;;;;1.53;89.89;95947.97;5110687;28;20055;-73
2021/12/11 10:32:48;;;;;;;10.98;6.82;;;;;;;1.60;89.75;95951.16;5110852;28;20555;-74
2021/12/11 10:35:19;;;;;;;10.13;6.93;;;;;;;1.63;89.34;95947.94;5110546;28;20063;-74
2021/12/11 10:37:46;;;;;;;11.52;6.65;;;;;;;1.71;89.44;95958.13;5109768;28;20040;-74
2021/12/11 10:40:19;;;;;;;8.55;6.03;;;;;;;1.71;88.54;95958.13;5110593;28;20051;-75
2021/12/11 10:42:52;;;;;;;9.50;6.60;;;;;;;1.68;88.06;95963.25;5110534;28;20048;-74
2021/12/11 10:45:20;;;;;;;8.60;5.75;;;;;;;1.68;88.55;95966.72;5110502;28;20075;-74
2021/12/11 10:47:52;;;;;;;9.00;5.93;;;;;;;1.70;88.55;95969.13;5089982;28;20050;-74
2021/12/11 10:50:23;;;;;;;12.80;6.57;;;;;;;1.73;88.46;95968.59;5089870;28;20734;-75
2021/12/11 10:52:51;;;;;;;12.20;6.50;;;;;;;1.69;87.64;95976.38;5090304;28;20044;-75
2021/12/11 10:55:21;;;;;;;11.77;6.50;;;;;;;1.66;88.12;95976.09;5089935;28;20048;-75
2021/12/11 10:57:48;;;;;;;10.48;6.18;;;;;;;1.65;87.83;95977.19;5090731;28;20074;-74
2021/12/11 11:00:21;;;;;;;9.20;6.13;;;;;;;1.62;87.76;95981.22;5109544;28;20055;-74
2021/12/11 11:02:47;;;;;;;7.75;5.32;;;;;;;1.66;88.29;95989.53;5110333;28;20051;-74
2021/12/11 11:05:17;;;;;;;9.38;5.90;;;;;;;1.66;87.84;95987.66;5109752;28;20058;-74
2021/12/11 11:07:46;;;;;;;11.35;7.32;;;;;;;1.66;88.18;95998.38;5109955;28;20047;-74
2021/12/11 11:10:16;;;;;;;13.25;6.50;;;;;;;1.74;88.02;95997.84;5109752;28;20422;-74
2021/12/11 11:12:43;;;;;;;12.70;8.10;;;;;;;1.74;88.00;96000.53;5110243;28;20044;-75
2021/12/11 11:15:12;;;;;;;12.18;7.38;;;;;;;1.83;87.46;96012.34;5109878;28;20494;-74
2021/12/11 11:17:40;;;;;;;11.73;7.43;;;;;;;1.91;87.27;96008.28;5109984;28;20053;-74
2021/12/11 11:20:11;;;;;;;11.07;6.90;;;;;;;1.91;87.11;96020.91;5109631;28;20518;-75
2021/12/11 11:22:41;;;;;;;8.48;6.00;;;;;;;1.98;86.25;96026.81;5109705;28;20056;-74
2021/12/11 11:25:12;;;;;;;10.73;7.20;;;;;;;1.91;86.29;96031.66;5109001;28;20066;-74
2021/12/11 11:27:40;;;;;;;10.18;6.78;;;;;;;2.01;85.92;96037.00;5109694;28;20051;-74
2021/12/11 11:30:13;;;;;;;8.70;5.57;;;;;;;2.02;84.12;96039.41;5109390;28;20044;-74
2021/12/11 11:32:41;;;;;;;9.93;6.38;;;;;;;2.03;84.62;96034.84;5109644;28;20494;-74
2021/12/11 11:35:12;;;;;;;10.18;6.82;;;;;;;2.07;84.92;96035.94;5108776;28;20402;-74
2021/12/11 11:37:39;;;;;;;10.05;6.72;;;;;;;2.09;84.49;96045.34;5130101;27;20062;-74
2021/12/11 11:40:09;;;;;;;11.02;6.50;;;;;;;2.19;84.22;96041.81;5128934;27;20399;-74
2021/12/11 11:42:36;;;;;;;8.32;5.68;;;;;;;2.17;83.87;96048.53;5114460;27;20048;-74
2021/12/11 11:45:05;;;;;;;7.70;5.57;;;;;;;2.13;83.88;96053.63;5109079;28;20067;-73
2021/12/11 11:47:32;;;;;;;9.55;6.50;;;;;;;2.21;84.12;96053.09;5108807;28;20430;-74
2021/12/11 11:50:02;;;;;;;8.18;6.10;;;;;;;2.24;83.11;96063.28;5109369;28;20043;-74
2021/12/11 11:52:30;;;;;;;9.65;6.45;;;;;;;2.29;83.80;96063.28;5108829;28;20495;-74
2021/12/11 11:55:00;;;;;;;9.13;6.00;;;;;;;2.24;83.73;96074.03;5109156;28;20047;-75
2021/12/11 11:57:31;;;;;;;10.13;6.95;;;;;;;2.23;83.03;96072.41;5108102;28;20056;-75